sensor_id;sensor_type;location;lat;lon;timestamp;pressure;altitude;pressure_sealevel;temperature;humidity
30636;BME280;17400;52.392;9.750;2023-01-30T00:01:56;100755.59;;;3.15;100.00
30636;BME280;17400;52.392;9.750;2023-01-30T00:04:27;100742.34;;;3.13;100.00
30636;BME280;17400;52.392;9.750;2023-01-30T00:06:54;100729.69;;;3.15;100.00
30636;BME280;17400;52.392;9.750;2023-01-30T00:09:22;100713.03;;;3.22;100.00
30636;BME280;17400;52.392;9.750;2023-01-30T00:11:50;100699.50;;;3.23;100.00
30636;BME280;17400;52.392;9.750;2023-01-30T00:14:18;100721.91;;;3.22;100.00
30636;BME280;17400;52.392;9.750;2023-01-30T00:16:45;100718.91;;;3.25;100.00
30636;BME280;17400;52.392;9.750;2023-01-30T00:19:14;100707.94;;;3.28;100.00
30636;BME280;17400;52.392;9.750;2023-01-30T00:21:43;100722.16;;;3.29;100.00
30636;BME280;17400;52.392;9.750;2023-01-30T00:24:11;100706.91;;;3.29;100.00
30636;BME280;17400;52.392;9.750;2023-01-30T00:26:39;100725.97;;;3.26;100.00
30636;BME280;17400;52.392;9.750;2023-01-30T00:29:07;100723.75;;;3.22;100.00
30636;BME280;17400;52.392;9.750;2023-01-30T00:31:37;100730.75;;;3.23;100.00
30636;BME280;17400;52.392;9.750;2023-01-30T00:34:05;100727.81;;;3.26;100.00
30636;BME280;17400;52.392;9.750;2023-01-30T00:36:32;100725.13;;;3.26;100.00
30636;BME280;17400;52.392;9.750;2023-01-30T00:39:02;100717.50;;;3.31;100.00
30636;BME280;17400;52.392;9.750;2023-01-30T00:41:30;100699.59;;;3.31;100.00
30636;BME280;17400;52.392;9.750;2023-01-30T00:44:12;100700.31;;;3.33;100.00
30636;BME280;17400;52.392;9.750;2023-01-30T00:47:00;100690.13;;;3.37;100.00
30636;BME280;17400;52.392;9.750;2023-01-30T00:49:35;100692.13;;;3.35;100.00
30636;BME280;17400;52.392;9.750;2023-01-30T00:52:04;100689.72;;;3.32;100.00
30636;BME280;17400;52.392;9.750;2023-01-30T00:54:33;100682.72;;;3.31;100.00
30636;BME280;17400;52.392;9.750;2023-01-30T00:57:01;100667.34;;;3.33;100.00
30636;BME280;17400;52.392;9.750;2023-01-30T00:59:29;100668.19;;;3.33;100.00
30636;BME280;17400;52.392;9.750;2023-01-30T01:01:57;100670.72;;;3.35;100.00
30636;BME280;17400;52.392;9.750;2023-01-30T01:04:25;100661.38;;;3.39;100.00
30636;BME280;17400;52.392;9.750;2023-01-30T01:06:53;100653.22;;;3.41;100.00
30636;BME280;17400;52.392;9.750;2023-01-30T01:09:21;100654.34;;;3.38;100.00
30636;BME280;17400;52.392;9.750;2023-01-30T01:11:50;100661.06;;;3.42;100.00
30636;BME280;17400;52.392;9.750;2023-01-30T01:14:18;100655.19;;;3.39;100.00
30636;BME280;17400;52.392;9.750;2023-01-30T01:16:48;100646.47;;;3.37;100.00
30636;BME280;17400;52.392;9.750;2023-01-30T01:19:16;100610.16;;;3.34;100.00
30636;BME280;17400;52.392;9.750;2023-01-30T01:21:43;100596.78;;;3.34;100.00
30636;BME280;17400;52.392;9.750;2023-01-30T01:24:15;100591.75;;;3.31;100.00
30636;BME280;17400;52.392;9.750;2023-01-30T01:26:43;100590.06;;;3.30;100.00
30636;BME280;17400;52.392;9.750;2023-01-30T01:29:14;100601.06;;;3.27;100.00
30636;BME280;17400;52.392;9.750;2023-01-30T01:31:42;100574.31;;;3.27;100.00
30636;BME280;17400;52.392;9.750;2023-01-30T01:34:10;100569.09;;;3.25;100.00
30636;BME280;17400;52.392;9.750;2023-01-30T01:36:38;100541.66;;;3.23;100.00
30636;BME280;17400;52.392;9.750;2023-01-30T01:39:22;100531.81;;;3.24;100.00
30636;BME280;17400;52.392;9.750;2023-01-30T01:41:50;100538.53;;;3.28;100.00
30636;BME280;17400;52.392;9.750;2023-01-30T01:44:18;100522.31;;;3.29;100.00
30636;BME280;17400;52.392;9.750;2023-01-30T01:46:48;100533.81;;;3.22;100.00
30636;BME280;17400;52.392;9.750;2023-01-30T01:49:21;100542.50;;;3.24;100.00
30636;BME280;17400;52.392;9.750;2023-01-30T01:51:54;100530.66;;;3.26;100.00
30636;BME280;17400;52.392;9.750;2023-01-30T01:54:26;100515.31;;;3.28;100.00
30636;BME280;17400;52.392;9.750;2023-01-30T01:57:01;100508.25;;;3.27;100.00
30636;BME280;17400;52.392;9.750;2023-01-30T01:59:34;100511.94;;;3.26;100.00
30636;BME280;17400;52.392;9.750;2023-01-30T02:02:08;100522.84;;;3.33;100.00
30636;BME280;17400;52.392;9.750;2023-01-30T02:04:39;100511.97;;;3.34;100.00
30636;BME280;17400;52.392;9.750;2023-01-30T02:07:26;100507.88;;;3.40;100.00
30636;BME280;17400;52.392;9.750;2023-01-30T02:09:58;100503.19;;;3.42;100.00
30636;BME280;17400;52.392;9.750;2023-01-30T02:12:26;100504.41;;;3.48;100.00
30636;BME280;17400;52.392;9.750;2023-01-30T02:14:57;100499.91;;;3.48;100.00
30636;BME280;17400;52.392;9.750;2023-01-30T02:17:25;100501.25;;;3.53;100.00
30636;BME280;17400;52.392;9.750;2023-01-30T02:19:56;100509.66;;;3.58;100.00
30636;BME280;17400;52.392;9.750;2023-01-30T02:22:51;100497.47;;;3.63;100.00
30636;BME280;17400;52.392;9.750;2023-01-30T02:25:40;100499.16;;;3.64;100.00
30636;BME280;17400;52.392;9.750;2023-01-30T02:31:31;100477.75;;;3.64;100.00
30636;BME280;17400;52.392;9.750;2023-01-30T02:34:20;100480.28;;;3.66;100.00
30636;BME280;17400;52.392;9.750;2023-01-30T02:37:00;100475.44;;;3.70;100.00
30636;BME280;17400;52.392;9.750;2023-01-30T02:39:40;100485.47;;;3.67;100.00
30636;BME280;17400;52.392;9.750;2023-01-30T02:42:18;100453.34;;;3.67;100.00
30636;BME280;17400;52.392;9.750;2023-01-30T02:44:54;100452.88;;;3.72;100.00
30636;BME280;17400;52.392;9.750;2023-01-30T02:47:29;100452.72;;;3.74;100.00
30636;BME280;17400;52.392;9.750;2023-01-30T02:50:03;100439.84;;;3.77;100.00
30636;BME280;17400;52.392;9.750;2023-01-30T02:52:34;100435.50;;;3.76;100.00
30636;BME280;17400;52.392;9.750;2023-01-30T02:55:07;100437.84;;;3.79;100.00
30636;BME280;17400;52.392;9.750;2023-01-30T02:57:36;100423.94;;;3.76;100.00
30636;BME280;17400;52.392;9.750;2023-01-30T03:00:06;100428.16;;;3.78;100.00
30636;BME280;17400;52.392;9.750;2023-01-30T03:02:48;100417.63;;;3.85;100.00
30636;BME280;17400;52.392;9.750;2023-01-30T03:08:39;100402.75;;;3.91;100.00
30636;BME280;17400;52.392;9.750;2023-01-30T03:11:11;100394.22;;;3.95;100.00
30636;BME280;17400;52.392;9.750;2023-01-30T03:13:46;100388.88;;;3.95;100.00
30636;BME280;17400;52.392;9.750;2023-01-30T03:16:21;100397.41;;;3.99;100.00
30636;BME280;17400;52.392;9.750;2023-01-30T03:18:53;100395.75;;;3.98;100.00
30636;BME280;17400;52.392;9.750;2023-01-30T03:21:21;100396.44;;;4.00;100.00
30636;BME280;17400;52.392;9.750;2023-01-30T03:23:49;100371.31;;;4.01;100.00
30636;BME280;17400;52.392;9.750;2023-01-30T03:26:19;100370.31;;;4.02;100.00
30636;BME280;17400;52.392;9.750;2023-01-30T03:28:49;100379.38;;;4.01;100.00
30636;BME280;17400;52.392;9.750;2023-01-30T03:31:18;100371.47;;;3.99;100.00
30636;BME280;17400;52.392;9.750;2023-01-30T03:33:46;100368.47;;;4.03;100.00
30636;BME280;17400;52.392;9.750;2023-01-30T03:36:15;100367.63;;;4.02;100.00
30636;BME280;17400;52.392;9.750;2023-01-30T03:38:44;100372.97;;;4.02;100.00
30636;BME280;17400;52.392;9.750;2023-01-30T03:41:12;100355.25;;;4.01;100.00
30636;BME280;17400;52.392;9.750;2023-01-30T03:43:40;100350.72;;;4.02;100.00
30636;BME280;17400;52.392;9.750;2023-01-30T03:46:07;100360.28;;;4.04;100.00
30636;BME280;17400;52.392;9.750;2023-01-30T03:48:37;100343.88;;;4.07;100.00
30636;BME280;17400;52.392;9.750;2023-01-30T03:51:05;100349.22;;;4.07;100.00
30636;BME280;17400;52.392;9.750;2023-01-30T03:53:34;100349.06;;;4.09;100.00
30636;BME280;17400;52.392;9.750;2023-01-30T03:56:02;100339.84;;;4.11;100.00
30636;BME280;17400;52.392;9.750;2023-01-30T03:58:30;100335.53;;;4.10;100.00
30636;BME280;17400;52.392;9.750;2023-01-30T04:01:00;100336.00;;;4.14;100.00
30636;BME280;17400;52.392;9.750;2023-01-30T04:03:27;100324.81;;;4.19;100.00
30636;BME280;17400;52.392;9.750;2023-01-30T04:05:55;100328.50;;;4.17;100.00
30636;BME280;17400;52.392;9.750;2023-01-30T04:08:23;100330.19;;;4.19;100.00
30636;BME280;17400;52.392;9.750;2023-01-30T04:10:52;100319.13;;;4.22;100.00
30636;BME280;17400;52.392;9.750;2023-01-30T04:13:20;100320.47;;;4.26;100.00
30636;BME280;17400;52.392;9.750;2023-01-30T04:15:48;100323.81;;;4.28;100.00
30636;BME280;17400;52.392;9.750;2023-01-30T04:18:20;100315.44;;;4.31;100.00
30636;BME280;17400;52.392;9.750;2023-01-30T04:20:48;100307.91;;;4.34;100.00
30636;BME280;17400;52.392;9.750;2023-01-30T04:23:16;100306.06;;;4.35;100.00
30636;BME280;17400;52.392;9.750;2023-01-30T04:25:45;100296.03;;;4.37;100.00
30636;BME280;17400;52.392;9.750;2023-01-30T04:28:15;100289.00;;;4.36;100.00
30636;BME280;17400;52.392;9.750;2023-01-30T04:30:42;100297.03;;;4.36;100.00
30636;BME280;17400;52.392;9.750;2023-01-30T04:33:10;100282.81;;;4.36;100.00
30636;BME280;17400;52.392;9.750;2023-01-30T04:35:38;100296.03;;;4.37;100.00
30636;BME280;17400;52.392;9.750;2023-01-30T04:38:06;100294.34;;;4.36;100.00
30636;BME280;17400;52.392;9.750;2023-01-30T04:40:33;100292.34;;;4.38;100.00
30636;BME280;17400;52.392;9.750;2023-01-30T04:43:01;100294.00;;;4.39;100.00
30636;BME280;17400;52.392;9.750;2023-01-30T04:45:30;100292.00;;;4.41;100.00
30636;BME280;17400;52.392;9.750;2023-01-30T04:47:58;100286.66;;;4.41;100.00
30636;BME280;17400;52.392;9.750;2023-01-30T04:50:28;100291.66;;;4.44;100.00
30636;BME280;17400;52.392;9.750;2023-01-30T04:52:57;100283.13;;;4.57;100.00
30636;BME280;17400;52.392;9.750;2023-01-30T04:55:26;100279.59;;;4.65;100.00
30636;BME280;17400;52.392;9.750;2023-01-30T04:57:54;100273.56;;;4.71;100.00
30636;BME280;17400;52.392;9.750;2023-01-30T05:00:23;100264.34;;;4.74;100.00
30636;BME280;17400;52.392;9.750;2023-01-30T05:02:52;100270.38;;;4.76;100.00
30636;BME280;17400;52.392;9.750;2023-01-30T05:05:24;100265.50;;;4.79;100.00
30636;BME280;17400;52.392;9.750;2023-01-30T05:07:52;100263.47;;;4.81;100.00
30636;BME280;17400;52.392;9.750;2023-01-30T05:10:22;100252.59;;;4.83;100.00
30636;BME280;17400;52.392;9.750;2023-01-30T05:12:50;100253.09;;;4.78;100.00
30636;BME280;17400;52.392;9.750;2023-01-30T05:15:17;100254.44;;;4.82;100.00
30636;BME280;17400;52.392;9.750;2023-01-30T05:17:46;100248.06;;;4.83;100.00
30636;BME280;17400;52.392;9.750;2023-01-30T05:20:15;100262.31;;;4.84;100.00
30636;BME280;17400;52.392;9.750;2023-01-30T05:22:43;100254.44;;;4.82;100.00
30636;BME280;17400;52.392;9.750;2023-01-30T05:25:10;100246.06;;;4.86;100.00
30636;BME280;17400;52.392;9.750;2023-01-30T05:27:38;100252.06;;;4.88;100.00
30636;BME280;17400;52.392;9.750;2023-01-30T05:30:09;100248.75;;;4.86;100.00
30636;BME280;17400;52.392;9.750;2023-01-30T05:32:37;100253.06;;;4.87;100.00
30636;BME280;17400;52.392;9.750;2023-01-30T05:35:05;100258.25;;;4.88;100.00
30636;BME280;17400;52.392;9.750;2023-01-30T05:37:35;100264.66;;;4.87;100.00
30636;BME280;17400;52.392;9.750;2023-01-30T05:40:04;100259.13;;;4.89;100.00
30636;BME280;17400;52.392;9.750;2023-01-30T05:42:32;100257.44;;;4.88;100.00
30636;BME280;17400;52.392;9.750;2023-01-30T05:45:00;100271.34;;;4.91;100.00
30636;BME280;17400;52.392;9.750;2023-01-30T05:47:28;100279.56;;;4.90;100.00
30636;BME280;17400;52.392;9.750;2023-01-30T05:49:55;100268.50;;;4.93;100.00
30636;BME280;17400;52.392;9.750;2023-01-30T05:52:23;100270.69;;;4.89;100.00
30636;BME280;17400;52.392;9.750;2023-01-30T05:54:52;100262.97;;;4.94;100.00
30636;BME280;17400;52.392;9.750;2023-01-30T05:57:20;100266.50;;;4.95;100.00
30636;BME280;17400;52.392;9.750;2023-01-30T05:59:50;100261.44;;;4.92;100.00
30636;BME280;17400;52.392;9.750;2023-01-30T06:02:20;100260.28;;;4.94;100.00
30636;BME280;17400;52.392;9.750;2023-01-30T06:04:48;100245.69;;;4.97;100.00
30636;BME280;17400;52.392;9.750;2023-01-30T06:07:15;100247.72;;;4.95;100.00
30636;BME280;17400;52.392;9.750;2023-01-30T06:09:43;100248.72;;;4.94;100.00
30636;BME280;17400;52.392;9.750;2023-01-30T06:12:12;100246.22;;;4.92;100.00
30636;BME280;17400;52.392;9.750;2023-01-30T06:14:40;100249.53;;;4.94;100.00
30636;BME280;17400;52.392;9.750;2023-01-30T06:17:08;100255.38;;;5.06;100.00
30636;BME280;17400;52.392;9.750;2023-01-30T06:19:35;100252.31;;;5.26;100.00
30636;BME280;17400;52.392;9.750;2023-01-30T06:22:03;100245.03;;;5.43;100.00
30636;BME280;17400;52.392;9.750;2023-01-30T06:24:30;100245.03;;;5.43;100.00
30636;BME280;17400;52.392;9.750;2023-01-30T06:26:58;100254.56;;;5.45;100.00
30636;BME280;17400;52.392;9.750;2023-01-30T06:29:29;100259.41;;;5.50;100.00
30636;BME280;17400;52.392;9.750;2023-01-30T06:32:00;100251.03;;;5.45;100.00
30636;BME280;17400;52.392;9.750;2023-01-30T06:34:27;100247.22;;;5.39;100.00
30636;BME280;17400;52.392;9.750;2023-01-30T06:36:55;100290.56;;;5.28;100.00
30636;BME280;17400;52.392;9.750;2023-01-30T06:39:23;100288.19;;;5.25;100.00
30636;BME280;17400;52.392;9.750;2023-01-30T06:41:51;100279.50;;;5.23;100.00
30636;BME280;17400;52.392;9.750;2023-01-30T06:44:18;100281.16;;;5.24;100.00
30636;BME280;17400;52.392;9.750;2023-01-30T06:46:47;100285.69;;;5.23;100.00
30636;BME280;17400;52.392;9.750;2023-01-30T06:49:15;100295.25;;;5.26;100.00
30636;BME280;17400;52.392;9.750;2023-01-30T06:51:43;100287.69;;;5.29;100.00
30636;BME280;17400;52.392;9.750;2023-01-30T06:54:12;100287.50;;;5.31;100.00
30636;BME280;17400;52.392;9.750;2023-01-30T06:56:39;100300.63;;;5.26;100.00
30636;BME280;17400;52.392;9.750;2023-01-30T06:59:07;100286.19;;;5.27;100.00
30636;BME280;17400;52.392;9.750;2023-01-30T07:01:38;100291.72;;;5.25;100.00
30636;BME280;17400;52.392;9.750;2023-01-30T07:04:07;100294.56;;;5.24;100.00
30636;BME280;17400;52.392;9.750;2023-01-30T07:06:35;100295.59;;;5.23;100.00
30636;BME280;17400;52.392;9.750;2023-01-30T07:09:06;100296.59;;;5.22;100.00
30636;BME280;17400;52.392;9.750;2023-01-30T07:11:34;100295.91;;;5.20;100.00
30636;BME280;17400;52.392;9.750;2023-01-30T07:14:02;100300.28;;;5.21;100.00
30636;BME280;17400;52.392;9.750;2023-01-30T07:16:32;100297.59;;;5.21;100.00
30636;BME280;17400;52.392;9.750;2023-01-30T07:18:59;100305.31;;;5.24;100.00
30636;BME280;17400;52.392;9.750;2023-01-30T07:21:28;100300.44;;;5.27;100.00
30636;BME280;17400;52.392;9.750;2023-01-30T07:23:56;100296.91;;;5.27;100.00
30636;BME280;17400;52.392;9.750;2023-01-30T07:26:25;100298.44;;;5.21;100.00
30636;BME280;17400;52.392;9.750;2023-01-30T07:28:55;100289.91;;;5.17;100.00
30636;BME280;17400;52.392;9.750;2023-01-30T07:31:22;100298.28;;;5.23;100.00
30636;BME280;17400;52.392;9.750;2023-01-30T07:33:50;100293.25;;;5.28;100.00
30636;BME280;17400;52.392;9.750;2023-01-30T07:36:18;100301.44;;;5.26;100.00
30636;BME280;17400;52.392;9.750;2023-01-30T07:38:48;100298.25;;;5.31;100.00
30636;BME280;17400;52.392;9.750;2023-01-30T07:41:16;100284.81;;;5.31;100.00
30636;BME280;17400;52.392;9.750;2023-01-30T07:43:43;100278.78;;;5.29;100.00
30636;BME280;17400;52.392;9.750;2023-01-30T07:46:11;100281.13;;;5.32;100.00
30636;BME280;17400;52.392;9.750;2023-01-30T07:48:39;100285.66;;;5.31;100.00
30636;BME280;17400;52.392;9.750;2023-01-30T07:51:06;100283.16;;;5.30;100.00
30636;BME280;17400;52.392;9.750;2023-01-30T07:53:34;100276.28;;;5.27;100.00
30636;BME280;17400;52.392;9.750;2023-01-30T07:56:06;100270.91;;;5.27;100.00
30636;BME280;17400;52.392;9.750;2023-01-30T07:58:35;100284.16;;;5.29;100.00
30636;BME280;17400;52.392;9.750;2023-01-30T08:01:03;100286.66;;;5.30;100.00
30636;BME280;17400;52.392;9.750;2023-01-30T08:03:30;100280.59;;;5.37;100.00
30636;BME280;17400;52.392;9.750;2023-01-30T08:05:58;100288.16;;;5.41;100.00
30636;BME280;17400;52.392;9.750;2023-01-30T08:08:26;100280.25;;;5.40;100.00
30636;BME280;17400;52.392;9.750;2023-01-30T08:10:53;100304.72;;;5.45;100.00
30636;BME280;17400;52.392;9.750;2023-01-30T08:13:23;100307.59;;;5.43;100.00
30636;BME280;17400;52.392;9.750;2023-01-30T08:15:50;100308.31;;;5.37;100.00
30636;BME280;17400;52.392;9.750;2023-01-30T08:18:18;100313.31;;;5.40;100.00
30636;BME280;17400;52.392;9.750;2023-01-30T08:20:46;100326.91;;;5.39;100.00
30636;BME280;17400;52.392;9.750;2023-01-30T08:23:13;100327.06;;;5.45;100.00
30636;BME280;17400;52.392;9.750;2023-01-30T08:25:41;100333.75;;;5.49;100.00
30636;BME280;17400;52.392;9.750;2023-01-30T08:28:09;100328.88;;;5.45;100.00
30636;BME280;17400;52.392;9.750;2023-01-30T08:30:39;100319.31;;;5.50;100.00
30636;BME280;17400;52.392;9.750;2023-01-30T08:33:07;100323.19;;;5.48;100.00
30636;BME280;17400;52.392;9.750;2023-01-30T08:35:35;100328.06;;;5.44;100.00
30636;BME280;17400;52.392;9.750;2023-01-30T08:38:04;100325.03;;;5.47;100.00
30636;BME280;17400;52.392;9.750;2023-01-30T08:40:32;100316.31;;;5.45;100.00
30636;BME280;17400;52.392;9.750;2023-01-30T08:43:00;100328.75;;;5.46;100.00
30636;BME280;17400;52.392;9.750;2023-01-30T08:45:28;100327.38;;;5.50;100.00
30636;BME280;17400;52.392;9.750;2023-01-30T08:47:58;100329.53;;;5.55;100.00
30636;BME280;17400;52.392;9.750;2023-01-30T08:50:26;100329.34;;;5.57;100.00
30636;BME280;17400;52.392;9.750;2023-01-30T08:52:54;100321.78;;;5.60;100.00
30636;BME280;17400;52.392;9.750;2023-01-30T08:55:22;100319.47;;;5.57;100.00
30636;BME280;17400;52.392;9.750;2023-01-30T08:57:50;100321.63;;;5.62;100.00
30636;BME280;17400;52.392;9.750;2023-01-30T09:00:19;100333.72;;;5.58;100.00
30636;BME280;17400;52.392;9.750;2023-01-30T09:02:46;100332.22;;;5.55;100.00
30636;BME280;17400;52.392;9.750;2023-01-30T09:05:15;100327.69;;;5.56;100.00
30636;BME280;17400;52.392;9.750;2023-01-30T09:07:44;100326.97;;;5.62;100.00
30636;BME280;17400;52.392;9.750;2023-01-30T09:10:14;100333.34;;;5.69;100.00
30636;BME280;17400;52.392;9.750;2023-01-30T09:12:43;100327.63;;;5.72;100.00
30636;BME280;17400;52.392;9.750;2023-01-30T09:15:12;100327.44;;;5.74;100.00
30636;BME280;17400;52.392;9.750;2023-01-30T09:17:40;100309.81;;;5.71;100.00
30636;BME280;17400;52.392;9.750;2023-01-30T09:20:11;100333.00;;;5.72;100.00
30636;BME280;17400;52.392;9.750;2023-01-30T09:22:40;100327.44;;;5.74;100.00
30636;BME280;17400;52.392;9.750;2023-01-30T09:25:08;100321.06;;;5.75;100.00
30636;BME280;17400;52.392;9.750;2023-01-30T09:27:36;100329.63;;;5.70;100.00
30636;BME280;17400;52.392;9.750;2023-01-30T09:30:04;100337.88;;;5.68;100.00
30636;BME280;17400;52.392;9.750;2023-01-30T09:32:32;100322.91;;;5.74;100.00
30636;BME280;17400;52.392;9.750;2023-01-30T09:35:03;100326.25;;;5.76;100.00
30636;BME280;17400;52.392;9.750;2023-01-30T09:37:31;100307.09;;;5.79;100.00
30636;BME280;17400;52.392;9.750;2023-01-30T09:40:00;100313.81;;;5.83;100.00
30636;BME280;17400;52.392;9.750;2023-01-30T09:42:43;100326.19;;;5.84;100.00
30636;BME280;17400;52.392;9.750;2023-01-30T09:45:25;100319.19;;;5.83;100.00
30636;BME280;17400;52.392;9.750;2023-01-30T09:48:02;100323.00;;;5.89;100.00
30636;BME280;17400;52.392;9.750;2023-01-30T09:50:45;100317.44;;;5.91;100.00
30636;BME280;17400;52.392;9.750;2023-01-30T09:53:20;100322.47;;;5.94;100.00
30636;BME280;17400;52.392;9.750;2023-01-30T09:55:52;100318.28;;;5.99;100.00
30636;BME280;17400;52.392;9.750;2023-01-30T09:58:21;100318.59;;;6.05;100.00
30636;BME280;17400;52.392;9.750;2023-01-30T10:00:53;100307.84;;;6.05;100.00
30636;BME280;17400;52.392;9.750;2023-01-30T10:03:27;100304.66;;;6.01;100.00
30636;BME280;17400;52.392;9.750;2023-01-30T10:05:59;100315.06;;;6.04;100.00
30636;BME280;17400;52.392;9.750;2023-01-30T10:08:45;100314.06;;;5.97;100.00
30636;BME280;17400;52.392;9.750;2023-01-30T10:11:24;100320.78;;;6.01;100.00
30636;BME280;17400;52.392;9.750;2023-01-30T10:14:13;100304.66;;;6.01;100.00
30636;BME280;17400;52.392;9.750;2023-01-30T10:16:52;100310.38;;;5.98;100.00
30636;BME280;17400;52.392;9.750;2023-01-30T10:19:43;100317.03;;;6.10;100.00
30636;BME280;17400;52.392;9.750;2023-01-30T10:22:23;100314.66;;;6.15;100.00
30636;BME280;17400;52.392;9.750;2023-01-30T10:25:02;100300.03;;;6.18;100.00
30636;BME280;17400;52.392;9.750;2023-01-30T10:27:41;100309.59;;;6.21;100.00
30636;BME280;17400;52.392;9.750;2023-01-30T10:30:15;100306.22;;;6.19;100.00
30636;BME280;17400;52.392;9.750;2023-01-30T10:32:47;100295.47;;;6.19;100.00
30636;BME280;17400;52.392;9.750;2023-01-30T10:35:21;100300.50;;;6.22;100.00
30636;BME280;17400;52.392;9.750;2023-01-30T10:37:57;100286.16;;;6.29;100.00
30636;BME280;17400;52.392;9.750;2023-01-30T10:40:29;100289.06;;;6.43;100.00
30636;BME280;17400;52.392;9.750;2023-01-30T10:43:07;100278.81;;;6.46;100.00
30636;BME280;17400;52.392;9.750;2023-01-30T10:45:44;100269.06;;;6.45;100.00
30636;BME280;17400;52.392;9.750;2023-01-30T10:48:26;100260.53;;;6.42;100.00
30636;BME280;17400;52.392;9.750;2023-01-30T10:51:20;100276.78;;;6.48;100.00
30636;BME280;17400;52.392;9.750;2023-01-30T10:53:55;100256.56;;;6.53;100.00
30636;BME280;17400;52.392;9.750;2023-01-30T10:56:31;100273.00;;;6.58;100.00
30636;BME280;17400;52.392;9.750;2023-01-30T10:59:06;100277.53;;;6.57;100.00
30636;BME280;17400;52.392;9.750;2023-01-30T11:01:43;100263.44;;;6.55;100.00
30636;BME280;17400;52.392;9.750;2023-01-30T11:04:20;100292.06;;;6.48;100.00
30636;BME280;17400;52.392;9.750;2023-01-30T11:06:51;100299.81;;;6.43;100.00
30636;BME280;17400;52.392;9.750;2023-01-30T11:09:19;100274.88;;;6.34;100.00
30636;BME280;17400;52.392;9.750;2023-01-30T11:11:51;100317.66;;;6.21;100.00
30636;BME280;17400;52.392;9.750;2023-01-30T11:14:21;100298.72;;;6.14;100.00
30636;BME280;17400;52.392;9.750;2023-01-30T11:16:50;100281.41;;;6.16;100.00
30636;BME280;17400;52.392;9.750;2023-01-30T11:19:20;100275.22;;;6.08;100.00
30636;BME280;17400;52.392;9.750;2023-01-30T11:21:50;100266.91;;;5.94;100.00
30636;BME280;17400;52.392;9.750;2023-01-30T11:24:30;100260.81;;;6.00;100.00
30636;BME280;17400;52.392;9.750;2023-01-30T11:27:09;100273.25;;;6.02;100.00
30636;BME280;17400;52.392;9.750;2023-01-30T11:29:38;100286.22;;;5.90;100.00
30636;BME280;17400;52.392;9.750;2023-01-30T11:32:12;100286.97;;;5.75;100.00
30636;BME280;17400;52.392;9.750;2023-01-30T11:34:42;100286.19;;;5.66;100.00
30636;BME280;17400;52.392;9.750;2023-01-30T11:37:12;100270.22;;;5.73;100.00
30636;BME280;17400;52.392;9.750;2023-01-30T11:39:47;100276.66;;;5.87;100.00
30636;BME280;17400;52.392;9.750;2023-01-30T11:42:18;100262.31;;;6.03;100.00
30636;BME280;17400;52.392;9.750;2023-01-30T11:44:54;100248.19;;;6.09;100.00
30636;BME280;17400;52.392;9.750;2023-01-30T11:47:48;100260.13;;;6.07;100.00
30636;BME280;17400;52.392;9.750;2023-01-30T11:50:28;100245.19;;;6.04;100.00
30636;BME280;17400;52.392;9.750;2023-01-30T11:53:03;100250.34;;;6.14;100.00
30636;BME280;17400;52.392;9.750;2023-01-30T11:55:35;100250.34;;;6.14;100.00
30636;BME280;17400;52.392;9.750;2023-01-30T11:58:06;100253.75;;;6.08;100.00
30636;BME280;17400;52.392;9.750;2023-01-30T12:00:41;100255.28;;;6.02;100.00
30636;BME280;17400;52.392;9.750;2023-01-30T12:03:11;100253.56;;;6.09;100.00
30636;BME280;17400;52.392;9.750;2023-01-30T12:05:40;100241.03;;;5.93;100.00
30636;BME280;17400;52.392;9.750;2023-01-30T12:08:21;100263.34;;;5.94;100.00
30636;BME280;17400;52.392;9.750;2023-01-30T12:11:24;100284.03;;;5.93;100.00
30636;BME280;17400;52.392;9.750;2023-01-30T12:13:53;100282.63;;;5.74;100.00
30636;BME280;17400;52.392;9.750;2023-01-30T12:16:25;100254.91;;;5.74;100.00
30636;BME280;17400;52.392;9.750;2023-01-30T12:19:02;100286.88;;;5.60;100.00
30636;BME280;17400;52.392;9.750;2023-01-30T12:21:36;100302.53;;;5.48;100.00
30636;BME280;17400;52.392;9.750;2023-01-30T12:24:16;100302.75;;;5.39;100.00
30636;BME280;17400;52.392;9.750;2023-01-30T12:26:51;100294.41;;;5.25;100.00
30636;BME280;17400;52.392;9.750;2023-01-30T12:29:25;100289.19;;;5.32;100.00
30636;BME280;17400;52.392;9.750;2023-01-30T12:32:03;100293.34;;;5.43;100.00
30636;BME280;17400;52.392;9.750;2023-01-30T12:34:32;100309.28;;;5.44;100.00
30636;BME280;17400;52.392;9.750;2023-01-30T12:37:11;100313.69;;;5.37;100.00
30636;BME280;17400;52.392;9.750;2023-01-30T12:39:51;100305.91;;;5.42;100.00
30636;BME280;17400;52.392;9.750;2023-01-30T12:42:40;100300.16;;;5.54;100.00
30636;BME280;17400;52.392;9.750;2023-01-30T12:45:20;100287.44;;;5.47;100.00
30636;BME280;17400;52.392;9.750;2023-01-30T12:48:15;100303.41;;;5.41;100.00
30636;BME280;17400;52.392;9.750;2023-01-30T12:50:59;100293.88;;;5.30;100.00
30636;BME280;17400;52.392;9.750;2023-01-30T12:53:42;100294.53;;;5.40;100.00
30636;BME280;17400;52.392;9.750;2023-01-30T12:56:23;100303.53;;;5.47;100.00
30636;BME280;17400;52.392;9.750;2023-01-30T12:58:59;100308.97;;;5.31;100.00
30636;BME280;17400;52.392;9.750;2023-01-30T13:01:38;100297.25;;;5.24;100.00
30636;BME280;17400;52.392;9.750;2023-01-30T13:04:18;100309.84;;;5.23;100.00
30636;BME280;17400;52.392;9.750;2023-01-30T13:06:59;100311.13;;;5.36;100.00
30636;BME280;17400;52.392;9.750;2023-01-30T13:09:49;100310.66;;;5.24;100.00
30636;BME280;17400;52.392;9.750;2023-01-30T13:12:25;100310.81;;;5.39;100.00
30636;BME280;17400;52.392;9.750;2023-01-30T13:15:02;100315.97;;;5.48;100.00
30636;BME280;17400;52.392;9.750;2023-01-30T13:17:43;100298.81;;;5.58;100.00
30636;BME280;17400;52.392;9.750;2023-01-30T13:20:27;100298.16;;;5.56;100.00